sensor_id;sensor_type;location;lat;lon;timestamp;pressure;altitude;pressure_sealevel;temperature
63689;BMP280;54895;40.928;14.480;2023-02-15T00:00:06;102676.44;;;11.09
63689;BMP280;54895;40.928;14.480;2023-02-15T00:02:36;102668.75;;;10.96
63689;BMP280;54895;40.928;14.480;2023-02-15T00:05:02;102669.53;;;11.17
63689;BMP280;54895;40.928;14.480;2023-02-15T00:07:29;102667.00;;;11.28
63689;BMP280;54895;40.928;14.480;2023-02-15T00:09:55;102661.00;;;11.53
63689;BMP280;54895;40.928;14.480;2023-02-15T00:12:21;102666.41;;;11.78
63689;BMP280;54895;40.928;14.480;2023-02-15T00:14:48;102660.66;;;11.45
63689;BMP280;54895;40.928;14.480;2023-02-15T00:17:14;102663.28;;;11.40
63689;BMP280;54895;40.928;14.480;2023-02-15T00:19:41;102655.47;;;11.56
63689;BMP280;54895;40.928;14.480;2023-02-15T00:22:07;102657.25;;;11.25
63689;BMP280;54895;40.928;14.480;2023-02-15T00:24:34;102658.47;;;11.24
63689;BMP280;54895;40.928;14.480;2023-02-15T00:27:00;102654.59;;;11.05
63689;BMP280;54895;40.928;14.480;2023-02-15T00:29:26;102666.34;;;11.13
63689;BMP280;54895;40.928;14.480;2023-02-15T00:31:54;102663.31;;;11.05
63689;BMP280;54895;40.928;14.480;2023-02-15T00:34:25;102657.25;;;11.25
63689;BMP280;54895;40.928;14.480;2023-02-15T00:36:52;102666.81;;;11.31
63689;BMP280;54895;40.928;14.480;2023-02-15T00:39:19;102647.53;;;11.02
63689;BMP280;54895;40.928;14.480;2023-02-15T00:41:46;102639.38;;;10.91
63689;BMP280;54895;40.928;14.480;2023-02-15T00:44:13;102652.25;;;10.92
63689;BMP280;54895;40.928;14.480;2023-02-15T00:46:40;102648.88;;;11.12
63689;BMP280;54895;40.928;14.480;2023-02-15T00:49:09;102647.00;;;10.98
63689;BMP280;54895;40.928;14.480;2023-02-15T00:51:36;102641.84;;;10.94
63689;BMP280;54895;40.928;14.480;2023-02-15T00:54:02;102637.94;;;10.90
63689;BMP280;54895;40.928;14.480;2023-02-15T00:56:29;102638.44;;;10.94
63689;BMP280;54895;40.928;14.480;2023-02-15T00:58:55;102634.06;;;10.91
63689;BMP280;54895;40.928;14.480;2023-02-15T01:01:22;102636.03;;;10.61
63689;BMP280;54895;40.928;14.480;2023-02-15T01:03:51;102638.03;;;10.81
63689;BMP280;54895;40.928;14.480;2023-02-15T01:06:17;102636.13;;;10.67
63689;BMP280;54895;40.928;14.480;2023-02-15T01:08:45;102633.75;;;10.69
63689;BMP280;54895;40.928;14.480;2023-02-15T01:11:14;102633.47;;;10.67
63689;BMP280;54895;40.928;14.480;2023-02-15T01:13:41;102626.34;;;10.93
63689;BMP280;54895;40.928;14.480;2023-02-15T01:16:08;102634.31;;;11.27
63689;BMP280;54895;40.928;14.480;2023-02-15T01:18:35;102626.72;;;10.86
63689;BMP280;54895;40.928;14.480;2023-02-15T01:21:09;102620.19;;;10.87
63689;BMP280;54895;40.928;14.480;2023-02-15T01:23:36;102621.47;;;10.28
63689;BMP280;54895;40.928;14.480;2023-02-15T01:26:03;102626.06;;;10.42
63689;BMP280;54895;40.928;14.480;2023-02-15T01:28:29;102616.69;;;10.61
63689;BMP280;54895;40.928;14.480;2023-02-15T01:30:55;102609.44;;;10.47
63689;BMP280;54895;40.928;14.480;2023-02-15T01:33:22;102613.38;;;10.22
63689;BMP280;54895;40.928;14.480;2023-02-15T01:35:48;102602.22;;;10.04
63689;BMP280;54895;40.928;14.480;2023-02-15T01:38:16;102606.53;;;10.01
63689;BMP280;54895;40.928;14.480;2023-02-15T01:40:42;102601.84;;;10.25
63689;BMP280;54895;40.928;14.480;2023-02-15T01:43:10;102611.34;;;10.46
63689;BMP280;54895;40.928;14.480;2023-02-15T01:45:38;102600.56;;;9.92
63689;BMP280;54895;40.928;14.480;2023-02-15T01:50:43;102601.56;;;10.09
63689;BMP280;54895;40.928;14.480;2023-02-15T01:53:18;102595.59;;;10.14
63689;BMP280;54895;40.928;14.480;2023-02-15T01:55:54;102591.84;;;10.06
63689;BMP280;54895;40.928;14.480;2023-02-15T01:58:22;102591.56;;;10.04
63689;BMP280;54895;40.928;14.480;2023-02-15T02:00:51;102592.94;;;10.43
63689;BMP280;54895;40.928;14.480;2023-02-15T02:03:29;102592.31;;;10.19
63689;BMP280;54895;40.928;14.480;2023-02-15T02:05:58;102585.63;;;10.23
63689;BMP280;54895;40.928;14.480;2023-02-15T02:08:25;102581.47;;;10.08
63689;BMP280;54895;40.928;14.480;2023-02-15T02:10:53;102572.84;;;10.42
63689;BMP280;54895;40.928;14.480;2023-02-15T02:13:20;102577.59;;;10.52
63689;BMP280;54895;40.928;14.480;2023-02-15T02:15:59;102576.72;;;10.12
63689;BMP280;54895;40.928;14.480;2023-02-15T02:23:51;102571.59;;;9.56
63689;BMP280;54895;40.928;14.480;2023-02-15T02:37:56;102585.25;;;9.49
63689;BMP280;54895;40.928;14.480;2023-02-15T02:43:31;102590.56;;;9.49
63689;BMP280;54895;40.928;14.480;2023-02-15T02:46:01;102596.91;;;9.28
63689;BMP280;54895;40.928;14.480;2023-02-15T02:52:48;102582.59;;;9.02
63689;BMP280;54895;40.928;14.480;2023-02-15T02:55:31;102573.72;;;9.05
63689;BMP280;54895;40.928;14.480;2023-02-15T03:00:37;102592.03;;;9.26
63689;BMP280;54895;40.928;14.480;2023-02-15T03:03:14;102585.06;;;9.52
63689;BMP280;54895;40.928;14.480;2023-02-15T03:05:45;102585.78;;;9.53
63689;BMP280;54895;40.928;14.480;2023-02-15T03:08:15;102589.81;;;10.01
63689;BMP280;54895;40.928;14.480;2023-02-15T03:10:53;102587.69;;;9.76
63689;BMP280;54895;40.928;14.480;2023-02-15T03:13:20;102591.66;;;9.57
63689;BMP280;54895;40.928;14.480;2023-02-15T03:15:49;102584.13;;;9.55
63689;BMP280;54895;40.928;14.480;2023-02-15T03:18:40;102580.06;;;9.98
63689;BMP280;54895;40.928;14.480;2023-02-15T03:21:08;102582.16;;;9.65
63689;BMP280;54895;40.928;14.480;2023-02-15T03:23:57;102580.03;;;9.31
63689;BMP280;54895;40.928;14.480;2023-02-15T03:26:26;102583.59;;;9.51
63689;BMP280;54895;40.928;14.480;2023-02-15T03:28:55;102586.50;;;9.15
63689;BMP280;54895;40.928;14.480;2023-02-15T03:31:26;102587.19;;;9.25
63689;BMP280;54895;40.928;14.480;2023-02-15T03:34:00;102591.66;;;9.10
63689;BMP280;54895;40.928;14.480;2023-02-15T03:36:34;102587.19;;;8.92
63689;BMP280;54895;40.928;14.480;2023-02-15T03:39:23;102585.63;;;9.09
63689;BMP280;54895;40.928;14.480;2023-02-15T03:41:58;102590.72;;;9.22
63689;BMP280;54895;40.928;14.480;2023-02-15T03:44:29;102590.53;;;9.02
63689;BMP280;54895;40.928;14.480;2023-02-15T03:47:04;102591.91;;;9.21
63689;BMP280;54895;40.928;14.480;2023-02-15T03:52:45;102583.63;;;8.63
63689;BMP280;54895;40.928;14.480;2023-02-15T03:55:12;102581.81;;;8.78
63689;BMP280;54895;40.928;14.480;2023-02-15T03:57:38;102586.19;;;8.81
63689;BMP280;54895;40.928;14.480;2023-02-15T04:00:24;102584.38;;;8.96
63689;BMP280;54895;40.928;14.480;2023-02-15T04:05:43;102591.66;;;9.10
63689;BMP280;54895;40.928;14.480;2023-02-15T04:08:11;102587.81;;;8.87
63689;BMP280;54895;40.928;14.480;2023-02-15T04:10:38;102579.28;;;8.24
63689;BMP280;54895;40.928;14.480;2023-02-15T04:13:29;102585.22;;;8.28
63689;BMP280;54895;40.928;14.480;2023-02-15T04:15:56;102586.03;;;8.52
63689;BMP280;54895;40.928;14.480;2023-02-15T04:18:34;102603.34;;;8.71
63689;BMP280;54895;40.928;14.480;2023-02-15T04:21:20;102589.34;;;8.29
63689;BMP280;54895;40.928;14.480;2023-02-15T04:24:05;102578.75;;;7.75
63689;BMP280;54895;40.928;14.480;2023-02-15T04:26:51;102546.38;;;7.62
63689;BMP280;54895;40.928;14.480;2023-02-15T04:29:21;102561.09;;;7.99
63689;BMP280;54895;40.928;14.480;2023-02-15T04:31:48;102566.53;;;7.95
63689;BMP280;54895;40.928;14.480;2023-02-15T04:34:15;102577.25;;;8.19
63689;BMP280;54895;40.928;14.480;2023-02-15T04:36:42;102598.75;;;8.39
63689;BMP280;54895;40.928;14.480;2023-02-15T04:39:12;102589.91;;;8.24
63689;BMP280;54895;40.928;14.480;2023-02-15T04:41:38;102586.53;;;8.23
63689;BMP280;54895;40.928;14.480;2023-02-15T04:44:05;102602.19;;;8.63
63689;BMP280;54895;40.928;14.480;2023-02-15T04:46:32;102602.84;;;8.40
63689;BMP280;54895;40.928;14.480;2023-02-15T04:52:56;102606.72;;;8.21
63689;BMP280;54895;40.928;14.480;2023-02-15T04:55:23;102595.81;;;8.28
63689;BMP280;54895;40.928;14.480;2023-02-15T04:57:49;102602.38;;;8.59
63689;BMP280;54895;40.928;14.480;2023-02-15T05:00:16;102606.50;;;8.51
63689;BMP280;54895;40.928;14.480;2023-02-15T05:02:42;102602.38;;;8.59
63689;BMP280;54895;40.928;14.480;2023-02-15T05:05:08;102604.06;;;8.89
63689;BMP280;54895;40.928;14.480;2023-02-15T05:07:38;102606.25;;;8.40
63689;BMP280;54895;40.928;14.480;2023-02-15T05:10:05;102602.84;;;8.49
63689;BMP280;54895;40.928;14.480;2023-02-15T05:12:31;102609.84;;;8.61
63689;BMP280;54895;40.928;14.480;2023-02-15T05:14:58;102594.44;;;8.32
63689;BMP280;54895;40.928;14.480;2023-02-15T05:17:24;102612.56;;;8.43
63689;BMP280;54895;40.928;14.480;2023-02-15T05:19:50;102613.75;;;8.42
63689;BMP280;54895;40.928;14.480;2023-02-15T05:22:16;102623.75;;;8.56
63689;BMP280;54895;40.928;14.480;2023-02-15T05:24:43;102614.50;;;8.33
63689;BMP280;54895;40.928;14.480;2023-02-15T05:27:28;102619.41;;;7.99
63689;BMP280;54895;40.928;14.480;2023-02-15T05:30:13;102617.03;;;7.83
63689;BMP280;54895;40.928;14.480;2023-02-15T05:32:39;102618.78;;;8.13
63689;BMP280;54895;40.928;14.480;2023-02-15T05:35:06;102602.00;;;8.16
63689;BMP280;54895;40.928;14.480;2023-02-15T05:37:33;102616.72;;;8.26
63689;BMP280;54895;40.928;14.480;2023-02-15T05:40:00;102603.78;;;8.19
63689;BMP280;54895;40.928;14.480;2023-02-15T05:42:26;102616.47;;;7.88
63689;BMP280;54895;40.928;14.480;2023-02-15T05:44:52;102613.22;;;8.11
63689;BMP280;54895;40.928;14.480;2023-02-15T05:47:19;102618.19;;;8.27
63689;BMP280;54895;40.928;14.480;2023-02-15T05:52:59;102631.63;;;8.05
63689;BMP280;54895;40.928;14.480;2023-02-15T05:55:25;102628.84;;;8.09
63689;BMP280;54895;40.928;14.480;2023-02-15T05:57:52;102635.88;;;8.30
63689;BMP280;54895;40.928;14.480;2023-02-15T06:00:19;102629.38;;;8.40
63689;BMP280;54895;40.928;14.480;2023-02-15T06:02:45;102634.41;;;8.38
63689;BMP280;54895;40.928;14.480;2023-02-15T06:05:11;102637.22;;;8.07
63689;BMP280;54895;40.928;14.480;2023-02-15T06:07:38;102626.00;;;7.67
63689;BMP280;54895;40.928;14.480;2023-02-15T06:10:04;102637.03;;;7.84
63689;BMP280;54895;40.928;14.480;2023-02-15T06:12:31;102638.53;;;8.30
63689;BMP280;54895;40.928;14.480;2023-02-15T06:14:57;102647.28;;;8.72
63689;BMP280;54895;40.928;14.480;2023-02-15T06:17:24;102640.53;;;8.62
63689;BMP280;54895;40.928;14.480;2023-02-15T06:19:50;102650.28;;;8.65
63689;BMP280;54895;40.928;14.480;2023-02-15T06:22:16;102649.06;;;8.75
63689;BMP280;54895;40.928;14.480;2023-02-15T06:24:42;102649.13;;;8.48
63689;BMP280;54895;40.928;14.480;2023-02-15T06:27:09;102643.84;;;8.21
63689;BMP280;54895;40.928;14.480;2023-02-15T06:29:36;102646.03;;;8.49
63689;BMP280;54895;40.928;14.480;2023-02-15T06:32:02;102638.81;;;8.91
63689;BMP280;54895;40.928;14.480;2023-02-15T06:34:28;102653.41;;;9.05
63689;BMP280;54895;40.928;14.480;2023-02-15T06:36:54;102653.63;;;9.16
63689;BMP280;54895;40.928;14.480;2023-02-15T06:39:21;102651.72;;;9.40
63689;BMP280;54895;40.928;14.480;2023-02-15T06:41:47;102643.66;;;9.02
63689;BMP280;54895;40.928;14.480;2023-02-15T06:44:14;102650.97;;;9.16
63689;BMP280;54895;40.928;14.480;2023-02-15T06:46:40;102648.19;;;9.10
63689;BMP280;54895;40.928;14.480;2023-02-15T06:52:59;102661.84;;;10.12
63689;BMP280;54895;40.928;14.480;2023-02-15T06:55:26;102664.75;;;10.14
63689;BMP280;54895;40.928;14.480;2023-02-15T06:57:53;102660.75;;;10.18
63689;BMP280;54895;40.928;14.480;2023-02-15T07:00:20;102658.91;;;10.39
63689;BMP280;54895;40.928;14.480;2023-02-15T07:02:52;102661.91;;;10.03
63689;BMP280;54895;40.928;14.480;2023-02-15T07:05:25;102651.94;;;10.12
63689;BMP280;54895;40.928;14.480;2023-02-15T07:07:57;102662.22;;;10.34
63689;BMP280;54895;40.928;14.480;2023-02-15T07:10:24;102660.75;;;10.33
63689;BMP280;54895;40.928;14.480;2023-02-15T07:12:51;102656.69;;;10.66
63689;BMP280;54895;40.928;14.480;2023-02-15T07:15:18;102655.53;;;11.22
63689;BMP280;54895;40.928;14.480;2023-02-15T07:17:47;102663.69;;;11.13
63689;BMP280;54895;40.928;14.480;2023-02-15T07:20:17;102664.41;;;10.64
63689;BMP280;54895;40.928;14.480;2023-02-15T07:22:45;102662.56;;;11.05
63689;BMP280;54895;40.928;14.480;2023-02-15T07:25:12;102665.50;;;11.41
63689;BMP280;54895;40.928;14.480;2023-02-15T07:27:39;102660.88;;;11.62
63689;BMP280;54895;40.928;14.480;2023-02-15T07:30:08;102658.84;;;11.77
63689;BMP280;54895;40.928;14.480;2023-02-15T07:32:35;102658.19;;;11.62
63689;BMP280;54895;40.928;14.480;2023-02-15T07:35:05;102656.34;;;11.93
63689;BMP280;54895;40.928;14.480;2023-02-15T07:37:31;102658.31;;;11.93
63689;BMP280;54895;40.928;14.480;2023-02-15T07:39:57;102652.81;;;12.02
63689;BMP280;54895;40.928;14.480;2023-02-15T07:42:24;102652.94;;;12.18
63689;BMP280;54895;40.928;14.480;2023-02-15T07:44:51;102655.66;;;12.55
63689;BMP280;54895;40.928;14.480;2023-02-15T07:47:18;102657.66;;;12.60
63689;BMP280;54895;40.928;14.480;2023-02-15T07:53:34;102662.44;;;12.87
63689;BMP280;54895;40.928;14.480;2023-02-15T07:56:04;102654.75;;;13.11
63689;BMP280;54895;40.928;14.480;2023-02-15T07:58:30;102653.56;;;13.12
63689;BMP280;54895;40.928;14.480;2023-02-15T08:01:15;102657.38;;;12.94
63689;BMP280;54895;40.928;14.480;2023-02-15T08:03:41;102651.97;;;12.47
63689;BMP280;54895;40.928;14.480;2023-02-15T08:06:08;102656.53;;;12.41
63689;BMP280;54895;40.928;14.480;2023-02-15T08:08:34;102654.25;;;12.65
63689;BMP280;54895;40.928;14.480;2023-02-15T08:11:04;102643.56;;;12.65
63689;BMP280;54895;40.928;14.480;2023-02-15T08:13:51;102640.47;;;12.72
63689;BMP280;54895;40.928;14.480;2023-02-15T08:16:28;102644.53;;;12.62
63689;BMP280;54895;40.928;14.480;2023-02-15T08:18:57;102650.31;;;12.97
63689;BMP280;54895;40.928;14.480;2023-02-15T08:21:26;102653.00;;;12.97
63689;BMP280;54895;40.928;14.480;2023-02-15T08:23:56;102645.91;;;12.83
63689;BMP280;54895;40.928;14.480;2023-02-15T08:26:24;102650.44;;;12.77
63689;BMP280;54895;40.928;14.480;2023-02-15T08:28:51;102651.69;;;12.76
63689;BMP280;54895;40.928;14.480;2023-02-15T08:31:18;102662.31;;;13.18
63689;BMP280;54895;40.928;14.480;2023-02-15T08:33:46;102652.31;;;13.02
63689;BMP280;54895;40.928;14.480;2023-02-15T08:36:15;102657.25;;;13.25
63689;BMP280;54895;40.928;14.480;2023-02-15T08:38:42;102671.47;;;13.64
63689;BMP280;54895;40.928;14.480;2023-02-15T08:41:15;102660.56;;;14.22
63689;BMP280;54895;40.928;14.480;2023-02-15T08:43:42;102664.47;;;13.77
63689;BMP280;54895;40.928;14.480;2023-02-15T08:46:09;102657.44;;;14.18
63689;BMP280;54895;40.928;14.480;2023-02-15T08:48:36;102656.16;;;14.63
63689;BMP280;54895;40.928;14.480;2023-02-15T08:53:52;102650.19;;;14.92
63689;BMP280;54895;40.928;14.480;2023-02-15T08:56:22;102658.50;;;14.94
63689;BMP280;54895;40.928;14.480;2023-02-15T08:58:49;102657.91;;;15.12
63689;BMP280;54895;40.928;14.480;2023-02-15T09:01:17;102659.19;;;15.00
63689;BMP280;54895;40.928;14.480;2023-02-15T09:03:46;102664.38;;;14.87
63689;BMP280;54895;40.928;14.480;2023-02-15T09:06:14;102663.38;;;14.79
63689;BMP280;54895;40.928;14.480;2023-02-15T09:08:40;102665.75;;;15.10
63689;BMP280;54895;40.928;14.480;2023-02-15T09:13:35;102668.69;;;15.53
63689;BMP280;54895;40.928;14.480;2023-02-15T09:16:05;102675.59;;;15.72
63689;BMP280;54895;40.928;14.480;2023-02-15T09:18:34;102667.97;;;16.11
63689;BMP280;54895;40.928;14.480;2023-02-15T09:21:10;102671.81;;;16.21
63689;BMP280;54895;40.928;14.480;2023-02-15T09:23:43;102678.97;;;16.37
63689;BMP280;54895;40.928;14.480;2023-02-15T09:26:14;102679.84;;;15.97
63689;BMP280;54895;40.928;14.480;2023-02-15T09:28:41;102678.56;;;15.98
63689;BMP280;54895;40.928;14.480;2023-02-15T09:31:15;102665.25;;;15.87
63689;BMP280;54895;40.928;14.480;2023-02-15T09:33:43;102667.00;;;15.79
63689;BMP280;54895;40.928;14.480;2023-02-15T10:11:17;102697.34;;;17.68
63689;BMP280;54895;40.928;14.480;2023-02-15T10:14:14;102689.53;;;17.96
63689;BMP280;54895;40.928;14.480;2023-02-15T10:17:16;102700.13;;;18.33
63689;BMP280;54895;40.928;14.480;2023-02-15T10:22:37;102716.31;;;18.33
63689;BMP280;54895;40.928;14.480;2023-02-15T10:27:49;102719.13;;;18.79
63689;BMP280;54895;40.928;14.480;2023-02-15T10:30:42;102723.13;;;18.73
63689;BMP280;54895;40.928;14.480;2023-02-15T10:33:40;102717.69;;;18.26
63689;BMP280;54895;40.928;14.480;2023-02-15T10:47:30;102708.84;;;18.65
63689;BMP280;54895;40.928;14.480;2023-02-15T10:52:47;102709.84;;;18.87
63689;BMP280;54895;40.928;14.480;2023-02-15T11:06:17;102701.66;;;18.93
63689;BMP280;54895;40.928;14.480;2023-02-15T11:08:52;102695.75;;;19.15
63689;BMP280;54895;40.928;14.480;2023-02-15T11:13:56;102685.03;;;19.22
63689;BMP280;54895;40.928;14.480;2023-02-15T11:16:29;102686.22;;;19.34
63689;BMP280;54895;40.928;14.480;2023-02-15T11:19:08;102688.84;;;19.06
63689;BMP280;54895;40.928;14.480;2023-02-15T11:21:42;102684.19;;;19.68
63689;BMP280;54895;40.928;14.480;2023-02-15T11:26:46;102685.59;;;19.41
63689;BMP280;54895;40.928;14.480;2023-02-15T11:32:25;102677.81;;;19.58
63689;BMP280;54895;40.928;14.480;2023-02-15T11:35:10;102679.75;;;19.50
63689;BMP280;54895;40.928;14.480;2023-02-15T11:37:47;102673.66;;;19.85
63689;BMP280;54895;40.928;14.480;2023-02-15T11:40:21;102669.75;;;19.94
63689;BMP280;54895;40.928;14.480;2023-02-15T11:42:49;102665.84;;;20.02
63689;BMP280;54895;40.928;14.480;2023-02-15T11:45:31;102667.72;;;20.15
63689;BMP280;54895;40.928;14.480;2023-02-15T11:47:58;102673.13;;;20.15
63689;BMP280;54895;40.928;14.480;2023-02-15T11:53:56;102671.75;;;20.29
63689;BMP280;54895;40.928;14.480;2023-02-15T11:56:24;102657.28;;;20.19
63689;BMP280;54895;40.928;14.480;2023-02-15T11:59:11;102661.59;;;20.14
63689;BMP280;54895;40.928;14.480;2023-02-15T12:01:45;102665.56;;;20.13
63689;BMP280;54895;40.928;14.480;2023-02-15T12:04:23;102655.00;;;19.95
63689;BMP280;54895;40.928;14.480;2023-02-15T12:06:59;102650.69;;;19.99
63689;BMP280;54895;40.928;14.480;2023-02-15T12:09:35;102650.16;;;20.36
63689;BMP280;54895;40.928;14.480;2023-02-15T12:12:23;102640.09;;;20.52
63689;BMP280;54895;40.928;14.480;2023-02-15T12:14:56;102637.78;;;20.48
63689;BMP280;54895;40.928;14.480;2023-02-15T12:17:29;102636.59;;;20.79
63689;BMP280;54895;40.928;14.480;2023-02-15T12:20:00;102623.59;;;21.00
63689;BMP280;54895;40.928;14.480;2023-02-15T12:22:31;102630.84;;;21.20
63689;BMP280;54895;40.928;14.480;2023-02-15T12:25:01;102627.94;;;20.88
63689;BMP280;54895;40.928;14.480;2023-02-15T12:27:34;102625.19;;;20.73
63689;BMP280;54895;40.928;14.480;2023-02-15T12:30:07;102615.25;;;20.53
63689;BMP280;54895;40.928;14.480;2023-02-15T12:32:55;102615.09;;;20.66
63689;BMP280;54895;40.928;14.480;2023-02-15T12:35:34;102613.50;;;20.93
63689;BMP280;54895;40.928;14.480;2023-02-15T12:38:05;102607.94;;;21.06
63689;BMP280;54895;40.928;14.480;2023-02-15T12:41:01;102614.25;;;21.01
63689;BMP280;54895;40.928;14.480;2023-02-15T12:43:36;102613.53;;;21.23
63689;BMP280;54895;40.928;14.480;2023-02-15T12:46:22;102617.41;;;21.67
63689;BMP280;54895;40.928;14.480;2023-02-15T12:49:19;102604.25;;;21.56
63689;BMP280;54895;40.928;14.480;2023-02-15T12:51:49;102606.63;;;21.37
63689;BMP280;54895;40.928;14.480;2023-02-15T12:54:31;102610.22;;;21.62
63689;BMP280;54895;40.928;14.480;2023-02-15T12:56:59;102604.44;;;21.65
63689;BMP280;54895;40.928;14.480;2023-02-15T12:59:26;102604.84;;;21.32
63689;BMP280;54895;40.928;14.480;2023-02-15T13:01:53;102604.09;;;21.54
63689;BMP280;54895;40.928;14.480;2023-02-15T13:04:28;102598.97;;;21.80
63689;BMP280;54895;40.928;14.480;2023-02-15T13:06:58;102595.66;;;21.97
63689;BMP280;54895;40.928;14.480;2023-02-15T13:12:11;102591.44;;;21.56
63689;BMP280;54895;40.928;14.480;2023-02-15T13:14:46;102595.38;;;21.78
63689;BMP280;54895;40.928;14.480;2023-02-15T13:17:16;102589.69;;;21.36
63689;BMP280;54895;40.928;14.480;2023-02-15T13:19:50;102593.16;;;21.84
63689;BMP280;54895;40.928;14.480;2023-02-15T13:22:25;102593.31;;;21.24
63689;BMP280;54895;40.928;14.480;2023-02-15T13:24:58;102589.34;;;20.95
63689;BMP280;54895;40.928;14.480;2023-02-15T13:27:38;102587.19;;;21.31
63689;BMP280;54895;40.928;14.480;2023-02-15T13:30:19;102584.28;;;21.29
63689;BMP280;54895;40.928;14.480;2023-02-15T13:32:49;102586.81;;;21.27
63689;BMP280;54895;40.928;14.480;2023-02-15T13:35:18;102590.72;;;21.56
63689;BMP280;54895;40.928;14.480;2023-02-15T13:37:59;102583.88;;;21.40
63689;BMP280;54895;40.928;14.480;2023-02-15T13:56:48;102565.56;;;22.10
63689;BMP280;54895;40.928;14.480;2023-02-15T14:07:33;102563.66;;;22.59
63689;BMP280;54895;40.928;14.480;2023-02-15T14:10:25;102570.25;;;22.73
63689;BMP280;54895;40.928;14.480;2023-02-15T14:13:11;102556.94;;;22.35
63689;BMP280;54895;40.928;14.480;2023-02-15T14:18:39;102573.38;;;21.66
63689;BMP280;54895;40.928;14.480;2023-02-15T14:21:42;102573.47;;;22.23
63689;BMP280;54895;40.928;14.480;2023-02-15T14:26:59;102567.38;;;22.15
63689;BMP280;54895;40.928;14.480;2023-02-15T14:29:53;102577.50;;;22.14
63689;BMP280;54895;40.928;14.480;2023-02-15T14:32:45;102576.41;;;22.10
63689;BMP280;54895;40.928;14.480;2023-02-15T14:35:20;102582.19;;;21.82
63689;BMP280;54895;40.928;14.480;2023-02-15T14:40:51;102575.84;;;22.19
63689;BMP280;54895;40.928;14.480;2023-02-15T14:46:52;102574.91;;;21.84
63689;BMP280;54895;40.928;14.480;2023-02-15T14:49:30;102566.81;;;21.77
63689;BMP280;54895;40.928;14.480;2023-02-15T14:52:00;102574.44;;;21.71
63689;BMP280;54895;40.928;14.480;2023-02-15T15:02:48;102585.75;;;21.15
63689;BMP280;54895;40.928;14.480;2023-02-15T15:05:29;102592.94;;;21.27
63689;BMP280;54895;40.928;14.480;2023-02-15T15:07:59;102590.41;;;21.14
63689;BMP280;54895;40.928;14.480;2023-02-15T15:10:42;102601.00;;;21.65
63689;BMP280;54895;40.928;14.480;2023-02-15T15:13:51;102597.81;;;21.29
63689;BMP280;54895;40.928;14.480;2023-02-15T15:16:46;102595.63;;;20.90
63689;BMP280;54895;40.928;14.480;2023-02-15T15:22:19;102599.44;;;20.87
63689;BMP280;54895;40.928;14.480;2023-02-15T15:24:47;102586.44;;;21.08
63689;BMP280;54895;40.928;14.480;2023-02-15T15:49:23;102578.69;;;20.09
63689;BMP280;54895;40.928;14.480;2023-02-15T15:51:50;102588.84;;;20.31
63689;BMP280;54895;40.928;14.480;2023-02-15T15:54:20;102581.81;;;20.28
63689;BMP280;54895;40.928;14.480;2023-02-15T15:56:50;102575.38;;;19.96
63689;BMP280;54895;40.928;14.480;2023-02-15T15:59:26;102583.91;;;19.72
63689;BMP280;54895;40.928;14.480;2023-02-15T16:01:54;102580.63;;;19.66
63689;BMP280;54895;40.928;14.480;2023-02-15T16:04:29;102570.94;;;20.13
63689;BMP280;54895;40.928;14.480;2023-02-15T16:06:57;102579.00;;;19.98
63689;BMP280;54895;40.928;14.480;2023-02-15T16:09:26;102573.94;;;20.02
63689;BMP280;54895;40.928;14.480;2023-02-15T16:11:57;102584.41;;;19.70
63689;BMP280;54895;40.928;14.480;2023-02-15T16:14:34;102583.94;;;19.79
63689;BMP280;54895;40.928;14.480;2023-02-15T16:17:03;102578.47;;;19.44
63689;BMP280;54895;40.928;14.480;2023-02-15T16:19:36;102569.38;;;19.06
63689;BMP280;54895;40.928;14.480;2023-02-15T16:22:10;102569.00;;;18.69
63689;BMP280;54895;40.928;14.480;2023-02-15T16:24:51;102568.38;;;18.76
63689;BMP280;54895;40.928;14.480;2023-02-15T16:27:34;102575.06;;;18.62
63689;BMP280;54895;40.928;14.480;2023-02-15T16:32:43;102579.06;;;18.35
63689;BMP280;54895;40.928;14.480;2023-02-15T16:35:15;102588.41;;;18.34
63689;BMP280;54895;40.928;14.480;2023-02-15T16:37:41;102588.00;;;17.91
63689;BMP280;54895;40.928;14.480;2023-02-15T16:40:28;102597.94;;;17.83
63689;BMP280;54895;40.928;14.480;2023-02-15T16:43:02;102596.88;;;17.73
63689;BMP280;54895;40.928;14.480;2023-02-15T16:45:30;102608.81;;;17.33
63689;BMP280;54895;40.928;14.480;2023-02-15T16:48:00;102615.16;;;17.35
63689;BMP280;54895;40.928;14.480;2023-02-15T16:50:33;102617.50;;;17.39
63689;BMP280;54895;40.928;14.480;2023-02-15T16:53:03;102625.88;;;17.22
63689;BMP280;54895;40.928;14.480;2023-02-15T16:55:39;102624.50;;;17.29
63689;BMP280;54895;40.928;14.480;2023-02-15T16:58:11;102634.56;;;17.10
63689;BMP280;54895;40.928;14.480;2023-02-15T17:00:39;102631.69;;;17.08
63689;BMP280;54895;40.928;14.480;2023-02-15T17:05:47;102635.22;;;17.16
63689;BMP280;54895;40.928;14.480;2023-02-15T17:13:27;102638.63;;;17.35
63689;BMP280;54895;40.928;14.480;2023-02-15T17:18:46;102651.16;;;17.14
63689;BMP280;54895;40.928;14.480;2023-02-15T17:21:17;102648.56;;;17.27
63689;BMP280;54895;40.928;14.480;2023-02-15T17:23:50;102658.13;;;17.41
63689;BMP280;54895;40.928;14.480;2023-02-15T17:26:32;102652.78;;;17.54
63689;BMP280;54895;40.928;14.480;2023-02-15T17:29:02;102659.66;;;17.36
63689;BMP280;54895;40.928;14.480;2023-02-15T17:31:37;102661.00;;;17.43
63689;BMP280;54895;40.928;14.480;2023-02-15T17:34:03;102658.84;;;17.41
63689;BMP280;54895;40.928;14.480;2023-02-15T17:36:31;102653.94;;;17.27
63689;BMP280;54895;40.928;14.480;2023-02-15T17:41:34;102667.22;;;17.38
63689;BMP280;54895;40.928;14.480;2023-02-15T17:44:01;102667.34;;;17.45
63689;BMP280;54895;40.928;14.480;2023-02-15T17:46:33;102671.41;;;17.52
63689;BMP280;54895;40.928;14.480;2023-02-15T17:49:01;102666.22;;;17.54
63689;BMP280;54895;40.928;14.480;2023-02-15T17:54:10;102666.06;;;17.65